createdAt,value
2019-05-18T00:02:47.791Z,6.25
2019-05-18T00:07:55.397Z,6.24
2019-05-18T00:13:03.011Z,6.20
2019-05-18T00:18:10.597Z,6.06
2019-05-18T00:23:18.178Z,5.91
2019-05-18T00:28:25.867Z,5.58
2019-05-18T00:33:33.483Z,6.13
2019-05-18T00:38:41.084Z,6.30
2019-05-18T00:43:48.462Z,6.36
2019-05-18T00:48:56.414Z,6.24
2019-05-18T00:54:03.928Z,6.35
2019-05-18T00:59:15.870Z,6.08
2019-05-18T01:04:20.255Z,6.17
2019-05-18T01:09:27.972Z,6.29
2019-05-18T01:14:35.407Z,5.97
2019-05-18T01:19:43.011Z,6.23
2019-05-18T01:24:50.463Z,5.93
2019-05-18T01:29:58.249Z,6.01
2019-05-18T01:35:05.890Z,6.16
2019-05-18T01:40:13.307Z,6.06
2019-05-18T01:45:20.992Z,5.80
2019-05-18T01:50:28.435Z,6.04
2019-05-18T01:55:36.211Z,5.99
2019-05-18T02:00:43.786Z,5.80
2019-05-18T02:05:51.442Z,6.15
2019-05-18T02:10:58.947Z,5.35
2019-05-18T02:16:06.641Z,5.91
2019-05-18T02:21:14.227Z,6.42
2019-05-18T02:26:21.903Z,6.40
2019-05-18T02:31:29.611Z,6.09
2019-05-18T02:36:37.327Z,5.92
2019-05-18T02:41:44.879Z,6.34
2019-05-18T02:46:52.737Z,6.23
2019-05-18T02:52:00.528Z,6.29
2019-05-18T02:57:08.088Z,6.51
2019-05-18T03:02:15.732Z,6.46
2019-05-18T03:07:23.308Z,6.64
2019-05-18T03:12:30.926Z,6.53
2019-05-18T03:17:38.631Z,6.76
2019-05-18T03:22:46.308Z,6.93
2019-05-18T03:27:53.937Z,6.75
2019-05-18T03:33:01.428Z,6.57
2019-05-18T03:38:08.983Z,6.58
2019-05-18T03:43:16.479Z,6.55
2019-05-18T03:48:24.220Z,6.72
2019-05-18T03:53:31.905Z,6.39
2019-05-18T03:58:39.675Z,6.32
2019-05-18T04:03:47.335Z,6.29
2019-05-18T04:08:54.999Z,5.93
2019-05-18T04:14:02.461Z,5.84
2019-05-18T04:19:10.621Z,5.52
2019-05-18T04:24:17.708Z,5.82
2019-05-18T04:29:25.322Z,6.07
2019-05-18T04:34:33.132Z,5.93
2019-05-18T04:39:40.411Z,5.31
2019-05-18T04:44:47.786Z,4.90
2019-05-18T04:50:05.102Z,5.19
2019-05-18T04:55:02.148Z,5.36
2019-05-18T05:00:10.429Z,5.92
2019-05-18T05:05:18.200Z,5.68
2019-05-18T05:10:25.578Z,5.90
2019-05-18T05:15:33.023Z,5.67
2019-05-18T05:20:40.707Z,5.81
2019-05-18T05:25:48.176Z,5.49
2019-05-18T05:30:55.883Z,5.58
2019-05-18T05:36:03.542Z,5.42
2019-05-18T05:41:16.387Z,5.39
2019-05-18T05:46:17.856Z,5.23
2019-05-18T05:51:25.298Z,5.32
2019-05-18T05:56:32.697Z,4.65
2019-05-18T06:01:40.214Z,4.77
2019-05-18T06:06:47.905Z,4.91
2019-05-18T06:11:55.368Z,5.36
2019-05-18T06:17:03.201Z,5.04
2019-05-18T06:22:11.603Z,5.13
2019-05-18T06:27:19.319Z,6.28
2019-05-18T06:32:26.992Z,5.63
2019-05-18T06:37:34.639Z,6.91
2019-05-18T06:42:42.266Z,5.61
2019-05-18T06:47:49.874Z,6.76
2019-05-18T06:52:59.862Z,6.00
2019-05-18T06:58:07.372Z,6.41
2019-05-18T07:03:15.293Z,5.75
2019-05-18T07:08:23.355Z,5.49
2019-05-18T07:13:31.393Z,5.98
2019-05-18T07:18:38.934Z,5.59
2019-05-18T07:23:46.522Z,5.40
2019-05-18T07:28:54.159Z,5.27
2019-05-18T07:34:01.780Z,5.05
2019-05-18T07:39:09.205Z,4.87
2019-05-18T07:44:17.913Z,4.90
2019-05-18T07:49:27.391Z,5.00
2019-05-18T07:54:34.586Z,4.76
2019-05-18T07:59:42.239Z,4.90
2019-05-18T08:04:50.389Z,4.83
2019-05-18T08:09:58.487Z,4.68
2019-05-18T08:15:06.473Z,4.50
2019-05-18T08:20:14.808Z,4.69
2019-05-18T08:25:22.625Z,4.46
2019-05-18T08:30:31.521Z,4.94
2019-05-18T08:35:40.062Z,4.24
2019-05-18T08:40:48.728Z,4.73
2019-05-18T08:45:57.020Z,4.78
2019-05-18T08:51:09.003Z,4.50
2019-05-18T08:56:16.045Z,4.79
2019-05-18T09:01:18.786Z,4.87
2019-05-18T09:06:16.216Z,5.10
2019-05-18T09:11:31.222Z,4.60
2019-05-18T09:16:28.984Z,4.92
2019-05-18T09:21:44.852Z,4.88
2019-05-18T09:26:42.588Z,4.73
2019-05-18T09:31:50.203Z,5.40
2019-05-18T09:36:57.626Z,6.25
2019-05-18T09:42:04.983Z,6.22
2019-05-18T09:47:12.840Z,6.39
2019-05-18T09:52:20.310Z,6.72
2019-05-18T09:57:28.009Z,6.79
2019-05-18T10:02:39.094Z,7.32
2019-05-18T10:07:38.400Z,6.53
2019-05-18T10:12:45.826Z,6.99
2019-05-18T10:17:53.476Z,6.42
2019-05-18T10:23:12.309Z,6.29
2019-05-18T10:28:09.005Z,6.09
2019-05-18T10:33:18.368Z,5.57
2019-05-18T10:38:25.796Z,6.61
2019-05-18T10:43:34.018Z,6.13
2019-05-18T10:48:42.045Z,5.74
2019-05-18T10:53:50.180Z,5.82
2019-05-18T10:58:58.389Z,5.54
2019-05-18T11:04:06.431Z,7.22
2019-05-18T11:09:14.876Z,5.64
2019-05-18T11:14:22.387Z,6.10
2019-05-18T11:19:30.006Z,5.32
2019-05-18T11:24:37.297Z,5.50
2019-05-18T11:29:44.856Z,5.48
2019-05-18T11:34:52.519Z,5.48
2019-05-18T11:39:59.675Z,4.93
2019-05-18T11:45:07.481Z,4.91
2019-05-18T11:50:15.011Z,5.01
2019-05-18T11:55:23.400Z,4.50
2019-05-18T12:00:32.823Z,4.21
2019-05-18T12:05:40.843Z,4.22
2019-05-18T12:10:48.356Z,4.14
2019-05-18T12:15:55.809Z,4.53
2019-05-18T12:21:03.581Z,4.10
2019-05-18T12:26:10.883Z,3.69
2019-05-18T12:31:18.347Z,3.62
2019-05-18T12:36:26.103Z,3.69
2019-05-18T12:41:33.274Z,3.51
2019-05-18T12:46:41.005Z,3.27
2019-05-18T12:51:48.456Z,3.05
2019-05-18T12:56:58.119Z,3.64
2019-05-18T13:02:06.342Z,4.20
2019-05-18T13:07:14.385Z,4.62
2019-05-18T13:12:22.120Z,3.95
2019-05-18T13:17:31.368Z,3.91
2019-05-18T13:22:39.964Z,3.98
2019-05-18T13:27:47.891Z,4.43
2019-05-18T13:32:55.558Z,4.70
2019-05-18T13:38:03.334Z,3.12
2019-05-18T13:43:11.007Z,2.87
2019-05-18T13:48:18.586Z,2.64
2019-05-18T13:53:25.969Z,2.50
2019-05-18T13:58:33.563Z,2.70
2019-05-18T14:03:41.925Z,2.68
2019-05-18T14:08:49.643Z,2.90
2019-05-18T14:13:57.092Z,3.05
2019-05-18T14:19:04.667Z,3.15
2019-05-18T14:24:13.091Z,3.00
2019-05-18T14:29:20.974Z,3.46
2019-05-18T14:34:28.664Z,3.54
2019-05-18T14:39:35.801Z,3.80
2019-05-18T14:44:43.560Z,4.04
2019-05-18T14:49:51.135Z,4.29
2019-05-18T14:55:00.818Z,4.36
2019-05-18T15:00:08.117Z,4.10
2019-05-18T15:05:17.068Z,3.58
2019-05-18T15:10:25.253Z,3.08
2019-05-18T15:15:33.776Z,3.06
2019-05-18T15:20:41.304Z,2.05
2019-05-18T15:25:51.100Z,2.05
2019-05-18T15:30:55.633Z,1.89
2019-05-18T15:36:04.091Z,1.90
2019-05-18T15:41:12.353Z,1.79
2019-05-18T15:46:20.909Z,1.82
2019-05-18T15:51:28.906Z,2.29
2019-05-18T15:56:36.605Z,2.36
2019-05-18T16:01:44.178Z,2.68
2019-05-18T16:06:51.954Z,2.67
2019-05-18T16:11:59.364Z,2.46
2019-05-18T16:17:06.791Z,2.66
2019-05-18T16:22:14.357Z,2.51
2019-05-18T16:27:21.753Z,2.72
2019-05-18T16:32:29.312Z,3.33
2019-05-18T16:37:37.170Z,3.01
2019-05-18T16:42:46.538Z,2.38
2019-05-18T16:47:52.094Z,2.36
2019-05-18T16:52:59.717Z,2.38
2019-05-18T16:58:07.635Z,2.25
2019-05-18T17:03:15.049Z,2.74
2019-05-18T17:08:22.463Z,3.35
2019-05-18T17:13:30.275Z,3.13
2019-05-18T17:18:38.661Z,3.23
2019-05-18T17:23:46.461Z,3.26
2019-05-18T17:28:54.133Z,2.95
2019-05-18T17:34:01.724Z,2.79
2019-05-18T17:39:09.119Z,2.90
2019-05-18T17:44:16.244Z,3.05
2019-05-18T17:49:26.854Z,3.27
2019-05-18T17:54:31.108Z,3.02
2019-05-18T17:59:38.772Z,2.85
2019-05-18T18:04:46.448Z,2.68
2019-05-18T18:09:53.885Z,2.57
2019-05-18T18:15:01.477Z,2.44
2019-05-18T18:20:09.348Z,2.40
2019-05-18T18:25:16.515Z,2.42
2019-05-18T18:30:23.968Z,2.35
2019-05-18T18:35:31.740Z,2.22
2019-05-18T18:40:40.329Z,2.30
2019-05-18T18:45:47.891Z,2.20
2019-05-18T18:50:55.451Z,2.64
2019-05-18T18:56:03.405Z,3.18
2019-05-18T19:01:11.370Z,2.69
2019-05-18T19:06:19.103Z,2.97
2019-05-18T19:11:26.912Z,3.18
2019-05-18T19:16:34.831Z,3.90
2019-05-18T19:21:42.451Z,2.97
2019-05-18T19:26:49.753Z,2.35
2019-05-18T19:31:57.319Z,2.32
2019-05-18T19:37:05.112Z,2.41
2019-05-18T19:42:13.033Z,2.40
2019-05-18T19:47:20.571Z,2.31
2019-05-18T19:52:28.334Z,2.90
2019-05-18T19:57:36.692Z,3.11
2019-05-18T20:02:44.010Z,3.17
2019-05-18T20:07:51.721Z,2.93
2019-05-18T20:12:59.518Z,2.94
2019-05-18T20:18:06.952Z,3.65
2019-05-18T20:23:14.595Z,3.64
2019-05-18T20:28:24.048Z,3.69
2019-05-18T20:33:29.493Z,3.43
2019-05-18T20:38:37.055Z,3.61
2019-05-18T20:43:44.925Z,3.54
2019-05-18T20:48:52.459Z,3.68
2019-05-18T20:54:01.619Z,3.76
2019-05-18T20:59:10.279Z,3.69
2019-05-18T21:04:18.213Z,3.37
2019-05-18T21:09:26.468Z,3.72
2019-05-18T21:14:34.423Z,3.89
2019-05-18T21:19:42.489Z,4.00
2019-05-18T21:24:51.035Z,3.95
2019-05-18T21:29:59.197Z,3.96
2019-05-18T21:35:07.081Z,3.94
2019-05-18T21:40:14.789Z,4.22
2019-05-18T21:45:23.130Z,5.10
2019-05-18T21:50:33.195Z,6.12
2019-05-18T21:55:30.436Z,6.47
2019-05-18T22:00:39.284Z,6.25
2019-05-18T22:05:46.749Z,6.63
2019-05-18T22:10:54.423Z,6.56
2019-05-18T22:16:02.272Z,6.67
2019-05-18T22:21:09.879Z,6.89
2019-05-18T22:26:17.503Z,6.77
2019-05-18T22:31:24.983Z,7.04
2019-05-18T22:36:32.577Z,7.91
2019-05-18T22:41:40.199Z,8.29
2019-05-18T22:46:47.690Z,8.47
2019-05-18T22:51:55.297Z,8.46
2019-05-18T22:57:03.057Z,8.32
2019-05-18T23:02:10.834Z,9.07
2019-05-18T23:07:18.224Z,9.57
2019-05-18T23:12:25.888Z,9.75
2019-05-18T23:17:33.613Z,9.71
2019-05-18T23:22:41.196Z,9.77
2019-05-18T23:27:48.520Z,9.83
2019-05-18T23:32:56.003Z,9.65
2019-05-18T23:38:03.487Z,10.11
2019-05-18T23:43:11.223Z,10.34
2019-05-18T23:48:18.941Z,10.76
2019-05-18T23:53:26.668Z,10.73
2019-05-18T23:58:34.213Z,11.02
